Cuthbert, Texas
Current Conditions -  °F | °C
As of 8:15 PM on Friday 19 Dec 2014 (Local Time) from KSNK Reporting Station
Overcast Overcast  
Wind Chill: 43°   Ceiling: 1400
Heat Index: 43°   Visibility: 10mi
Dew Point: 38°   Wind: 3mph
Humidity: 82%   Direction: 30°NNE
Pressure: 30.19"   Gusts: NA
Location:  32.4169°N, 100.857°W
Report Text: KSNK 200215Z AUTO 03003KT 10SM OVC014 06/03 A3019 RMK AO2 T00600031
Loading
Personal Weather Stations






























Interactive Weather Map New forecast layout! Learn more

10-Day Weather Forecast

Advertisements
Track Severe Weather on mobile